Time;durP1;ratioP1;P1;durP2;ratioP2;P2;SDS_P1;SDS_P2;PMS_P1;PMS_P2;Temp;Humidity;BMP_temperature;BMP_pressure;BME280_temperature;BME280_humidity;BME280_pressure;Samples;Min_cycle;Max_cycle;Signal;HPM_P1;HPM_P2
2022/10/15 00:00:47;;;;;;;0.30;0.10;;;14.70;99.90;;;;;;5037850;28;20502;-73
2022/10/15 00:03:14;;;;;;;0.60;0.10;;;14.70;99.90;;;;;;5034823;28;20491;-73
2022/10/15 00:05:42;;;;;;;0.30;0.10;;;14.70;99.90;;;;;;5037645;28;20502;-73
2022/10/15 00:08:10;;;;;;;0.70;0.10;;;14.70;99.90;;;;;;5035426;28;20463;-74
2022/10/15 00:10:38;;;;;;;0.30;0.10;;;14.70;99.90;;;;;;5037776;28;20452;-73
2022/10/15 00:13:06;;;;;;;0.80;0.10;;;14.70;99.90;;;;;;5035376;28;20480;-74
2022/10/15 00:15:35;;;;;;;0.30;0.10;;;14.80;99.90;;;;;;5036991;28;20719;-74
2022/10/15 00:18:03;;;;;;;0.30;0.10;;;14.80;99.90;;;;;;5034328;28;20807;-73
2022/10/15 00:20:30;;;;;;;0.30;0.10;;;14.80;99.90;;;;;;5037697;28;20478;-73
2022/10/15 00:22:57;;;;;;;0.30;0.10;;;14.80;99.90;;;;;;5035016;28;20460;-73
2022/10/15 00:25:24;;;;;;;0.30;0.10;;;14.70;99.90;;;;;;5037835;28;20827;-73
2022/10/15 00:27:51;;;;;;;0.20;0.10;;;14.80;99.90;;;;;;5034712;28;20957;-73
2022/10/15 00:30:19;;;;;;;0.30;0.10;;;14.80;99.90;;;;;;5038032;28;20448;-73
2022/10/15 00:32:46;;;;;;;0.20;0.10;;;14.90;99.90;;;;;;5034540;28;20514;-73
2022/10/15 00:35:13;;;;;;;0.30;0.10;;;14.90;99.90;;;;;;5037187;28;20444;-73
2022/10/15 00:37:42;;;;;;;0.30;0.10;;;14.90;99.90;;;;;;5035266;28;20605;-73
2022/10/15 00:40:13;;;;;;;0.37;0.10;;;14.90;99.90;;;;;;5036839;28;20452;-73
2022/10/15 00:42:40;;;;;;;0.30;0.10;;;14.90;99.90;;;;;;5035335;28;20526;-73
2022/10/15 00:45:12;;;;;;;0.40;0.10;;;14.90;99.90;;;;;;5037164;28;20483;-73
2022/10/15 00:47:44;;;;;;;0.50;0.10;;;14.90;99.90;;;;;;5034817;28;20900;-73
2022/10/15 00:50:14;;;;;;;0.30;0.10;;;14.80;99.90;;;;;;5038232;28;20921;-73
2022/10/15 00:52:54;;;;;;;0.20;0.10;;;14.80;99.90;;;;;;5034818;28;20801;-73
2022/10/15 00:55:27;;;;;;;0.30;0.10;;;14.90;99.90;;;;;;5037552;28;20440;-74
2022/10/15 00:57:55;;;;;;;0.40;0.10;;;14.80;99.90;;;;;;5034753;28;20456;-74
2022/10/15 01:00:22;;;;;;;0.20;0.10;;;14.80;99.90;;;;;;5037011;28;20452;-74
2022/10/15 01:02:50;;;;;;;0.20;0.10;;;14.90;99.90;;;;;;5035470;28;20460;-74
2022/10/15 01:05:18;;;;;;;1.50;0.20;;;14.90;99.90;;;;;;5036228;28;20562;-73
2022/10/15 01:07:45;;;;;;;0.30;0.10;;;14.80;99.90;;;;;;5034830;28;20810;-73
2022/10/15 01:10:14;;;;;;;0.20;0.10;;;14.90;99.90;;;;;;5037450;28;20444;-73
2022/10/15 01:12:53;;;;;;;0.30;0.10;;;14.90;99.90;;;;;;5034892;28;20464;-74
2022/10/15 01:15:25;;;;;;;0.47;0.13;;;14.90;99.90;;;;;;5037420;28;20416;-73
2022/10/15 01:17:57;;;;;;;0.30;0.10;;;14.90;99.90;;;;;;5035016;28;20721;-73
2022/10/15 01:20:46;;;;;;;0.30;0.10;;;15.00;99.90;;;;;;5036929;28;20498;-73
2022/10/15 01:23:54;;;;;;;0.20;0.00;;;15.00;99.90;;;;;;5024781;28;20464;-74
2022/10/15 01:27:00;;;;;;;0.27;0.10;;;14.90;99.90;;;;;;5038774;28;20495;-74
2022/10/15 01:29:53;;;;;;;0.30;0.10;;;14.90;99.90;;;;;;5033209;28;20467;-73
2022/10/15 01:32:26;;;;;;;0.27;0.10;;;14.90;99.90;;;;;;5021849;28;20468;-73
2022/10/15 01:34:58;;;;;;;0.20;0.10;;;14.90;99.90;;;;;;5040772;28;20444;-73
2022/10/15 01:37:31;;;;;;;0.30;0.10;;;14.90;99.90;;;;;;5038507;28;20460;-73
2022/10/15 01:40:05;;;;;;;0.30;0.10;;;14.90;99.90;;;;;;5039622;28;20452;-74
2022/10/15 01:42:38;;;;;;;0.30;0.10;;;14.90;99.90;;;;;;5037975;28;20662;-73
2022/10/15 01:45:09;;;;;;;0.30;0.10;;;14.90;99.90;;;;;;5040359;28;20954;-73
2022/10/15 01:47:44;;;;;;;0.33;0.10;;;14.90;99.90;;;;;;5037794;28;20486;-73
2022/10/15 01:50:13;;;;;;;0.60;0.10;;;15.00;99.90;;;;;;5040239;28;20431;-73
2022/10/15 01:52:42;;;;;;;0.30;0.10;;;14.90;99.90;;;;;;5037567;28;20492;-73
2022/10/15 01:55:12;;;;;;;0.40;0.10;;;15.00;99.90;;;;;;5039162;28;20806;-74
2022/10/15 01:57:42;;;;;;;0.40;0.10;;;14.90;99.90;;;;;;5036693;28;20884;-73
2022/10/15 02:00:10;;;;;;;0.30;0.10;;;14.90;99.90;;;;;;5039709;28;20448;-73
2022/10/15 02:02:38;;;;;;;0.30;0.10;;;14.90;99.90;;;;;;5037366;28;20460;-73
2022/10/15 02:05:09;;;;;;;1.33;0.20;;;15.00;99.90;;;;;;5039729;28;20484;-73
2022/10/15 02:07:44;;;;;;;0.30;0.10;;;15.00;99.90;;;;;;5038070;28;20888;-73
2022/10/15 02:10:18;;;;;;;0.20;0.10;;;14.90;99.90;;;;;;5040403;28;20936;-73
2022/10/15 02:13:00;;;;;;;0.30;0.17;;;15.00;99.90;;;;;;5040677;28;20460;-73
2022/10/15 02:15:35;;;;;;;0.30;0.10;;;15.10;99.90;;;;;;5040395;28;20448;-73
2022/10/15 02:18:09;;;;;;;0.30;0.10;;;15.10;99.90;;;;;;5037450;28;20908;-73
2022/10/15 02:20:43;;;;;;;0.20;0.10;;;15.10;99.90;;;;;;5039187;28;20451;-73
2022/10/15 02:23:15;;;;;;;0.30;0.10;;;15.10;99.90;;;;;;5037558;28;20521;-73
2022/10/15 02:25:47;;;;;;;0.30;0.10;;;15.10;99.90;;;;;;5039275;28;20538;-73
2022/10/15 02:28:16;;;;;;;0.20;0.10;;;15.10;99.90;;;;;;5036723;28;20884;-73
2022/10/15 02:30:45;;;;;;;0.67;0.10;;;15.00;99.90;;;;;;5039479;28;20448;-72
2022/10/15 02:33:16;;;;;;;0.40;0.10;;;15.10;99.90;;;;;;5036946;28;20479;-73
2022/10/15 02:35:43;;;;;;;0.30;0.10;;;15.10;99.90;;;;;;5038846;28;20946;-73
2022/10/15 02:38:14;;;;;;;0.20;0.10;;;15.10;99.90;;;;;;5037108;28;20456;-72
2022/10/15 02:40:43;;;;;;;0.20;0.10;;;15.10;99.90;;;;;;5039196;28;20800;-72
2022/10/15 02:43:13;;;;;;;0.30;0.10;;;15.10;99.90;;;;;;5036817;28;20490;-72
2022/10/15 02:45:41;;;;;;;0.23;0.10;;;15.10;99.90;;;;;;5038281;28;20484;-72
2022/10/15 02:48:08;;;;;;;0.20;0.10;;;15.10;99.90;;;;;;5036669;28;20452;-73
2022/10/15 02:50:36;;;;;;;0.30;0.10;;;15.20;99.90;;;;;;5039450;28;20880;-72
2022/10/15 02:53:04;;;;;;;0.30;0.10;;;15.20;99.90;;;;;;5037167;28;20456;-72
2022/10/15 02:55:30;;;;;;;0.20;0.10;;;15.20;99.90;;;;;;5038388;28;20448;-72
2022/10/15 02:57:58;;;;;;;0.30;0.10;;;15.10;99.90;;;;;;5036375;28;20815;-73
2022/10/15 03:00:25;;;;;;;0.40;0.10;;;15.20;99.90;;;;;;5038088;28;20452;-73
2022/10/15 03:02:52;;;;;;;0.30;0.10;;;15.20;99.90;;;;;;5036724;28;20460;-72
2022/10/15 03:05:19;;;;;;;0.30;0.10;;;15.20;99.90;;;;;;5038506;28;20544;-72
2022/10/15 03:07:47;;;;;;;0.20;0.10;;;15.20;99.90;;;;;;5038272;28;20553;-72
2022/10/15 03:10:14;;;;;;;0.20;0.10;;;15.20;99.90;;;;;;5038407;28;20452;-73
2022/10/15 03:12:41;;;;;;;0.30;0.10;;;15.20;99.90;;;;;;5035146;28;20506;-73
2022/10/15 03:15:09;;;;;;;0.87;0.10;;;15.20;99.90;;;;;;5038504;28;20440;-72
2022/10/15 03:17:36;;;;;;;0.20;0.10;;;15.20;99.90;;;;;;5034597;28;20526;-73
2022/10/15 03:20:04;;;;;;;0.30;0.10;;;15.20;99.90;;;;;;5038175;28;20452;-73
2022/10/15 03:22:30;;;;;;;0.30;0.10;;;15.20;99.90;;;;;;5035454;28;20456;-73
2022/10/15 03:24:59;;;;;;;0.30;0.10;;;15.20;99.90;;;;;;5037779;28;20484;-73
2022/10/15 03:27:26;;;;;;;0.70;0.10;;;15.20;99.90;;;;;;5034755;28;20514;-73
2022/10/15 03:29:53;;;;;;;0.20;0.10;;;15.20;99.90;;;;;;5036586;28;20452;-73
2022/10/15 03:32:19;;;;;;;0.40;0.10;;;15.20;99.90;;;;;;5034734;28;20806;-73
2022/10/15 03:34:46;;;;;;;0.30;0.10;;;15.20;99.90;;;;;;5038344;28;20503;-73
2022/10/15 03:37:13;;;;;;;0.20;0.10;;;15.20;99.90;;;;;;5033997;28;20518;-73
2022/10/15 03:39:40;;;;;;;1.17;0.10;;;15.30;99.90;;;;;;5036995;28;20498;-73
2022/10/15 03:42:09;;;;;;;0.30;0.10;;;15.30;99.90;;;;;;5034019;28;20499;-73
2022/10/15 03:44:36;;;;;;;0.20;0.10;;;15.30;99.90;;;;;;5035664;28;20928;-73
2022/10/15 03:47:02;;;;;;;0.20;0.10;;;15.30;99.90;;;;;;5036158;28;20513;-73
2022/10/15 03:49:29;;;;;;;0.30;0.10;;;15.30;99.90;;;;;;5036307;28;20768;-73
2022/10/15 03:51:56;;;;;;;0.20;0.10;;;15.30;99.90;;;;;;5036733;28;20460;-73
2022/10/15 03:54:23;;;;;;;0.30;0.10;;;15.30;99.90;;;;;;5036651;28;20452;-73
2022/10/15 03:56:50;;;;;;;0.20;0.10;;;15.30;99.90;;;;;;5034997;28;20460;-73
2022/10/15 03:59:19;;;;;;;0.20;0.10;;;15.40;99.90;;;;;;5037277;28;20448;-72
2022/10/15 04:01:48;;;;;;;0.20;0.10;;;15.40;99.90;;;;;;5037271;28;20894;-72
2022/10/15 04:04:14;;;;;;;0.40;0.10;;;15.40;99.90;;;;;;5037647;28;20453;-72
2022/10/15 04:06:41;;;;;;;0.30;0.10;;;15.40;99.90;;;;;;5033552;28;20487;-73
2022/10/15 04:09:11;;;;;;;0.30;0.10;;;15.50;99.90;;;;;;5036775;28;20452;-73
2022/10/15 04:11:38;;;;;;;0.30;0.10;;;15.50;99.90;;;;;;5034595;28;20444;-73
2022/10/15 04:14:05;;;;;;;0.20;0.10;;;15.50;99.90;;;;;;5036534;28;20476;-72
2022/10/15 04:16:34;;;;;;;0.67;0.10;;;15.40;99.90;;;;;;5035279;28;20784;-73
2022/10/15 04:19:01;;;;;;;0.30;0.10;;;15.40;99.90;;;;;;5036640;28;20452;-73
2022/10/15 04:21:27;;;;;;;0.30;0.10;;;15.50;99.90;;;;;;5034047;28;20448;-73
2022/10/15 04:23:59;;;;;;;0.20;0.10;;;15.50;99.90;;;;;;5037283;28;20448;-74
2022/10/15 04:26:34;;;;;;;0.30;0.10;;;15.40;99.90;;;;;;5035092;28;20494;-73
2022/10/15 04:29:06;;;;;;;0.20;0.10;;;15.50;99.90;;;;;;5037665;28;20455;-73
2022/10/15 04:31:37;;;;;;;0.30;0.10;;;15.50;99.90;;;;;;5034691;28;20455;-73
2022/10/15 04:34:06;;;;;;;0.20;0.10;;;15.50;99.90;;;;;;5037414;28;21042;-73
2022/10/15 04:36:33;;;;;;;0.30;0.10;;;15.50;99.90;;;;;;5034075;28;20788;-73
2022/10/15 04:39:00;;;;;;;0.20;0.00;;;15.50;99.90;;;;;;5035954;28;20634;-73
2022/10/15 04:41:28;;;;;;;0.50;0.10;;;15.50;99.90;;;;;;5036921;28;20452;-73
2022/10/15 04:43:55;;;;;;;0.20;0.10;;;15.50;99.90;;;;;;5034992;28;20892;-72
2022/10/15 04:46:22;;;;;;;0.30;0.10;;;15.50;99.90;;;;;;5036047;28;20955;-73
2022/10/15 04:48:56;;;;;;;0.20;0.10;;;15.50;99.90;;;;;;5034542;28;20526;-73
2022/10/15 04:51:27;;;;;;;0.20;0.10;;;15.60;99.90;;;;;;5035652;28;20498;-73
2022/10/15 04:53:54;;;;;;;0.40;0.10;;;15.50;99.90;;;;;;5034111;28;20456;-73
2022/10/15 04:56:22;;;;;;;0.30;0.10;;;15.50;99.90;;;;;;5039613;28;20444;-73
2022/10/15 04:58:50;;;;;;;0.20;0.10;;;15.50;99.90;;;;;;5038597;28;20460;-73
2022/10/15 05:01:19;;;;;;;0.30;0.10;;;15.50;99.90;;;;;;5040510;28;20451;-73
2022/10/15 05:03:48;;;;;;;0.63;0.10;;;15.50;99.90;;;;;;5036675;28;20460;-73
2022/10/15 05:06:20;;;;;;;0.20;0.10;;;15.50;99.90;;;;;;5037548;28;20582;-73
2022/10/15 05:08:47;;;;;;;0.30;0.10;;;15.50;99.90;;;;;;5038346;28;20456;-72
2022/10/15 05:11:17;;;;;;;0.20;0.10;;;15.50;99.90;;;;;;5040177;28;20448;-72
2022/10/15 05:13:44;;;;;;;0.40;0.10;;;15.50;99.90;;;;;;5037102;28;20476;-72
2022/10/15 05:16:13;;;;;;;0.20;0.10;;;15.60;99.90;;;;;;5037287;28;20452;-72
2022/10/15 05:18:41;;;;;;;0.20;0.10;;;15.60;99.90;;;;;;5034578;28;20982;-72
2022/10/15 05:21:09;;;;;;;0.30;0.10;;;15.60;99.90;;;;;;5037500;28;20522;-73
2022/10/15 05:23:38;;;;;;;0.40;0.10;;;15.70;99.90;;;;;;5036419;28;20451;-72
2022/10/15 05:26:08;;;;;;;0.23;0.10;;;15.70;99.90;;;;;;5038540;28;21009;-73
2022/10/15 05:28:36;;;;;;;0.30;0.10;;;15.70;99.90;;;;;;5037334;28;20456;-72
2022/10/15 05:31:07;;;;;;;0.30;0.10;;;15.70;99.90;;;;;;5039825;28;20448;-72
2022/10/15 05:33:34;;;;;;;0.40;0.10;;;15.70;99.90;;;;;;5038289;28;20479;-73
2022/10/15 05:36:12;;;;;;;0.90;0.10;;;15.70;99.90;;;;;;5039123;28;20440;-72
2022/10/15 05:38:41;;;;;;;0.20;0.10;;;15.70;99.90;;;;;;5037711;28;20459;-72
2022/10/15 05:41:08;;;;;;;0.30;0.10;;;15.70;99.90;;;;;;5039628;28;20815;-72
2022/10/15 05:43:35;;;;;;;0.30;0.10;;;15.70;99.90;;;;;;5038064;28;20496;-72
2022/10/15 05:46:02;;;;;;;0.30;0.10;;;15.70;99.90;;;;;;5039543;28;20675;-72
2022/10/15 05:48:29;;;;;;;0.30;0.10;;;15.70;99.90;;;;;;5037828;28;20448;-73
2022/10/15 05:51:01;;;;;;;0.20;0.10;;;15.70;99.90;;;;;;5039401;28;20448;-73
2022/10/15 05:53:28;;;;;;;0.30;0.10;;;15.70;99.90;;;;;;5035998;28;20502;-73
2022/10/15 05:55:59;;;;;;;0.30;0.10;;;15.70;99.90;;;;;;5038231;28;20906;-73
2022/10/15 05:58:27;;;;;;;0.30;0.10;;;15.60;99.90;;;;;;5036155;28;20478;-73
2022/10/15 06:04:26;;;;;;;1.17;0.10;;;15.60;99.90;;;;;;4976399;28;20415;-72
2022/10/15 06:07:05;;;;;;;1.43;0.10;;;15.60;99.90;;;;;;4975593;28;20489;-73
2022/10/15 06:09:33;;;;;;;0.30;0.10;;;15.60;99.90;;;;;;5031483;28;20452;-74
2022/10/15 06:12:01;;;;;;;0.30;0.10;;;15.60;99.90;;;;;;5039373;28;20444;-75
2022/10/15 06:14:29;;;;;;;0.40;0.10;;;15.60;99.90;;;;;;5036499;28;20484;-75
2022/10/15 06:16:55;;;;;;;1.17;0.10;;;15.60;99.90;;;;;;5038952;28;20448;-74
2022/10/15 06:19:22;;;;;;;0.20;0.10;;;15.50;99.90;;;;;;5039232;28;20457;-74
2022/10/15 06:21:49;;;;;;;0.40;0.10;;;15.50;99.90;;;;;;5038615;28;20946;-75
2022/10/15 06:24:16;;;;;;;0.43;0.17;;;15.50;99.90;;;;;;5035784;28;20513;-74
2022/10/15 06:26:43;;;;;;;0.30;0.10;;;15.60;99.90;;;;;;5038630;28;20558;-75
2022/10/15 06:29:12;;;;;;;0.43;0.10;;;15.50;99.90;;;;;;5035811;28;20452;-75
2022/10/15 06:31:38;;;;;;;0.40;0.10;;;15.70;99.90;;;;;;5037761;28;20526;-75
2022/10/15 06:34:05;;;;;;;0.50;0.10;;;15.60;99.90;;;;;;5036555;28;20456;-74
2022/10/15 06:36:32;;;;;;;0.30;0.10;;;15.60;99.90;;;;;;5038371;28;20815;-74
2022/10/15 06:38:59;;;;;;;0.30;0.10;;;15.60;99.90;;;;;;5037190;28;20464;-74
2022/10/15 06:41:26;;;;;;;0.30;0.10;;;15.60;99.90;;;;;;5038637;28;20452;-74
2022/10/15 06:43:53;;;;;;;0.30;0.10;;;15.60;99.90;;;;;;5036045;28;20510;-74
2022/10/15 06:46:21;;;;;;;0.30;0.10;;;15.60;99.90;;;;;;5038083;28;20476;-75
2022/10/15 06:48:50;;;;;;;0.30;0.10;;;15.50;99.90;;;;;;5036313;28;20460;-74
2022/10/15 06:51:17;;;;;;;0.30;0.10;;;15.50;99.90;;;;;;5037486;28;20467;-74
2022/10/15 06:53:45;;;;;;;0.50;0.20;;;15.50;99.90;;;;;;5035596;28;20456;-73
2022/10/15 06:56:12;;;;;;;0.40;0.10;;;15.50;99.90;;;;;;5039026;28;20448;-73
2022/10/15 06:58:42;;;;;;;0.30;0.10;;;15.50;99.90;;;;;;5036128;28;20504;-73
2022/10/15 07:01:09;;;;;;;0.43;0.20;;;15.50;99.90;;;;;;5037952;28;20449;-73
2022/10/15 07:03:37;;;;;;;0.50;0.20;;;15.50;99.90;;;;;;5036471;28;20898;-73
2022/10/15 07:06:06;;;;;;;0.30;0.13;;;15.50;99.90;;;;;;5038405;28;20523;-74
2022/10/15 07:08:33;;;;;;;0.30;0.13;;;15.50;99.90;;;;;;5036300;28;20499;-74
2022/10/15 07:11:01;;;;;;;0.30;0.10;;;15.50;99.90;;;;;;5038863;28;20521;-74
2022/10/15 07:13:29;;;;;;;0.40;0.20;;;15.50;99.90;;;;;;5035442;28;20476;-74
2022/10/15 07:16:02;;;;;;;0.30;0.20;;;15.50;99.90;;;;;;5038253;28;20767;-73
2022/10/15 07:18:29;;;;;;;0.50;0.20;;;15.50;99.90;;;;;;5033846;28;20492;-73
2022/10/15 07:20:58;;;;;;;0.40;0.20;;;15.50;99.90;;;;;;5036646;28;20475;-74
2022/10/15 07:23:26;;;;;;;0.30;0.10;;;15.50;99.90;;;;;;5034883;28;20558;-74
2022/10/15 07:25:53;;;;;;;1.77;0.20;;;15.60;99.90;;;;;;5038205;28;20492;-74
2022/10/15 07:28:20;;;;;;;0.40;0.20;;;15.60;99.90;;;;;;5034538;28;20944;-74
2022/10/15 07:30:47;;;;;;;0.40;0.20;;;15.70;99.90;;;;;;5037235;28;20452;-74
2022/10/15 07:33:14;;;;;;;1.60;0.20;;;15.80;99.90;;;;;;5037727;28;20887;-74
2022/10/15 07:35:41;;;;;;;0.40;0.20;;;15.70;99.90;;;;;;5034243;28;20468;-73
2022/10/15 07:38:09;;;;;;;0.40;0.20;;;15.80;99.90;;;;;;5035546;28;20452;-74
2022/10/15 07:40:36;;;;;;;0.30;0.13;;;15.90;99.90;;;;;;5031209;28;20479;-74
2022/10/15 07:43:05;;;;;;;1.47;0.20;;;15.90;99.90;;;;;;5035763;28;20448;-74
2022/10/15 07:45:32;;;;;;;0.30;0.20;;;15.90;99.90;;;;;;5032574;28;20500;-74
2022/10/15 07:47:59;;;;;;;0.37;0.20;;;16.10;99.90;;;;;;5036287;28;20506;-74
2022/10/15 07:50:26;;;;;;;0.40;0.20;;;16.20;99.90;;;;;;5034875;28;20464;-73
2022/10/15 07:52:53;;;;;;;0.30;0.20;;;16.30;99.90;;;;;;5037278;28;20452;-74
2022/10/15 07:55:21;;;;;;;1.17;0.20;;;16.30;99.90;;;;;;5034362;28;20459;-73
2022/10/15 07:57:48;;;;;;;0.43;0.20;;;16.30;99.90;;;;;;5036769;28;20440;-73
2022/10/15 08:00:15;;;;;;;0.37;0.20;;;16.30;99.90;;;;;;5037231;28;20464;-74
2022/10/15 08:02:42;;;;;;;0.50;0.20;;;16.10;99.90;;;;;;5034501;28;20519;-72
2022/10/15 08:05:10;;;;;;;0.37;0.20;;;16.10;99.90;;;;;;5034684;28;20555;-72
2022/10/15 08:07:37;;;;;;;0.70;0.20;;;16.20;99.90;;;;;;5035383;28;20779;-73
2022/10/15 08:10:05;;;;;;;0.60;0.20;;;16.20;99.90;;;;;;5033280;28;20519;-73
2022/10/15 08:12:33;;;;;;;0.50;0.20;;;16.00;99.90;;;;;;5037025;28;20452;-73
2022/10/15 08:15:00;;;;;;;0.40;0.20;;;15.90;99.90;;;;;;5033815;28;20484;-73
2022/10/15 08:17:27;;;;;;;0.30;0.10;;;15.90;99.90;;;;;;5036002;28;20440;-73
2022/10/15 08:19:54;;;;;;;0.30;0.20;;;15.90;99.90;;;;;;5032350;28;20460;-73
2022/10/15 08:22:21;;;;;;;0.40;0.20;;;16.00;99.90;;;;;;5036453;28;20543;-73
2022/10/15 08:24:48;;;;;;;0.30;0.20;;;16.00;99.90;;;;;;5023314;28;20460;-73
2022/10/15 08:27:15;;;;;;;0.50;0.20;;;16.10;99.90;;;;;;5039296;28;20480;-74
2022/10/15 08:29:44;;;;;;;0.33;0.13;;;16.30;99.90;;;;;;5029652;28;20538;-73
2022/10/15 08:32:12;;;;;;;0.70;0.20;;;16.30;99.90;;;;;;5030613;28;20460;-73
2022/10/15 08:34:41;;;;;;;1.03;0.27;;;16.40;99.90;;;;;;5027677;28;20788;-74
2022/10/15 08:37:08;;;;;;;0.30;0.20;;;16.60;99.90;;;;;;5035654;28;20504;-74
2022/10/15 08:39:35;;;;;;;0.30;0.17;;;16.60;99.90;;;;;;5031952;28;20464;-73
2022/10/15 08:42:05;;;;;;;0.30;0.10;;;16.60;99.90;;;;;;5037094;28;20444;-73
2022/10/15 08:44:44;;;;;;;0.33;0.20;;;16.50;99.90;;;;;;5017268;28;20465;-73
2022/10/15 08:47:25;;;;;;;0.50;0.20;;;16.60;99.90;;;;;;5033602;28;20530;-74
2022/10/15 08:49:55;;;;;;;0.50;0.20;;;16.60;99.90;;;;;;5031593;28;20743;-74
2022/10/15 08:52:42;;;;;;;0.63;0.20;;;16.60;99.90;;;;;;5035800;28;20448;-73
2022/10/15 08:55:11;;;;;;;0.60;0.20;;;16.60;99.90;;;;;;5021224;28;20774;-76
2022/10/15 08:57:43;;;;;;;0.30;0.20;;;16.70;99.90;;;;;;5022833;28;20465;-73
2022/10/15 09:00:18;;;;;;;0.60;0.40;;;16.60;99.90;;;;;;5013469;28;21057;-73
2022/10/15 09:02:54;;;;;;;0.60;0.40;;;16.60;99.90;;;;;;5034862;28;21113;-72
2022/10/15 09:05:31;;;;;;;0.57;0.30;;;16.60;99.90;;;;;;5031050;28;20489;-73
2022/10/15 09:08:07;;;;;;;0.40;0.20;;;16.70;99.90;;;;;;5032185;28;20487;-74
2022/10/15 09:10:39;;;;;;;0.37;0.20;;;16.70;99.90;;;;;;5022841;28;20491;-73
2022/10/15 09:13:12;;;;;;;0.30;0.20;;;16.70;99.90;;;;;;5034247;28;20468;-73
2022/10/15 09:15:49;;;;;;;0.30;0.10;;;16.80;99.90;;;;;;5030916;28;20456;-74
2022/10/15 09:18:21;;;;;;;0.30;0.20;;;16.70;99.90;;;;;;5036250;28;20470;-73
2022/10/15 09:20:49;;;;;;;0.30;0.20;;;16.60;99.90;;;;;;5034634;28;20490;-73
2022/10/15 09:23:19;;;;;;;0.30;0.20;;;16.60;99.90;;;;;;5034626;28;20445;-73
2022/10/15 09:25:51;;;;;;;0.57;0.20;;;16.60;99.90;;;;;;5034612;28;20448;-73
2022/10/15 09:28:25;;;;;;;0.40;0.20;;;16.70;99.90;;;;;;5029206;28;20985;-74
2022/10/15 09:30:57;;;;;;;0.40;0.20;;;16.60;99.90;;;;;;5035346;28;20441;-73
2022/10/15 09:33:36;;;;;;;0.50;0.30;;;16.60;99.90;;;;;;5031376;28;20441;-73
2022/10/15 09:36:25;;;;;;;0.30;0.20;;;16.60;99.90;;;;;;5032985;28;21088;-73
2022/10/15 09:39:03;;;;;;;0.57;0.30;;;16.60;99.90;;;;;;5030896;28;20476;-74
2022/10/15 09:41:39;;;;;;;1.33;0.43;;;16.80;99.90;;;;;;5032704;28;20779;-75
2022/10/15 09:44:12;;;;;;;1.70;0.30;;;16.90;99.90;;;;;;5035024;28;20483;-75
2022/10/15 09:46:46;;;;;;;0.60;0.30;;;17.00;99.90;;;;;;5020635;28;20475;-76
2022/10/15 09:49:18;;;;;;;0.40;0.20;;;17.10;99.90;;;;;;5033728;28;20472;-74
2022/10/15 09:51:54;;;;;;;0.40;0.20;;;17.30;99.90;;;;;;5038719;28;20459;-74
2022/10/15 09:54:28;;;;;;;0.70;0.20;;;17.30;99.90;;;;;;5036449;28;20452;-74
2022/10/15 09:56:56;;;;;;;0.30;0.20;;;17.30;99.90;;;;;;5038130;28;20461;-75
2022/10/15 09:59:25;;;;;;;0.30;0.17;;;17.30;99.90;;;;;;5038299;28;20530;-75
2022/10/15 10:02:01;;;;;;;6.93;4.20;;;17.40;99.90;;;;;;5037297;28;21048;-75
2022/10/15 10:04:30;;;;;;;0.40;0.20;;;17.60;99.90;;;;;;5033983;28;20456;-75
2022/10/15 10:06:59;;;;;;;0.33;0.10;;;17.70;99.90;;;;;;5038491;28;21154;-75
2022/10/15 10:09:31;;;;;;;0.30;0.10;;;17.80;99.90;;;;;;5047988;28;20463;-75
2022/10/15 10:12:01;;;;;;;0.80;0.10;;;17.80;99.90;;;;;;5036739;28;20450;-75
2022/10/15 10:14:30;;;;;;;0.60;0.30;;;17.90;99.90;;;;;;5014933;28;20485;-75
2022/10/15 10:17:24;;;;;;;0.50;0.20;;;18.10;99.90;;;;;;5024355;28;20484;-75
2022/10/15 10:20:12;;;;;;;2.87;0.10;;;18.20;99.90;;;;;;5011420;28;20782;-75
2022/10/15 10:22:43;;;;;;;0.30;0.10;;;18.20;99.90;;;;;;5037596;28;20838;-75
2022/10/15 10:25:31;;;;;;;0.20;0.10;;;18.30;99.90;;;;;;5035056;28;20518;-74
2022/10/15 10:28:04;;;;;;;0.40;0.20;;;18.60;99.90;;;;;;5038484;28;20487;-74
2022/10/15 10:30:34;;;;;;;0.30;0.10;;;18.70;99.90;;;;;;5016073;28;20469;-75
2022/10/15 10:33:06;;;;;;;0.50;0.30;;;18.90;99.90;;;;;;5027777;28;20551;-75
2022/10/15 10:35:49;;;;;;;0.30;0.10;;;19.10;99.90;;;;;;5032782;28;20460;-75
2022/10/15 10:38:24;;;;;;;0.73;0.20;;;19.30;99.90;;;;;;5036430;28;20448;-76
2022/10/15 10:40:54;;;;;;;0.83;0.20;;;19.60;99.90;;;;;;5038064;28;20478;-75
2022/10/15 10:43:27;;;;;;;0.33;0.13;;;19.70;91.90;;;;;;5037109;28;20932;-76
2022/10/15 10:45:57;;;;;;;0.40;0.20;;;19.60;88.50;;;;;;5038391;28;20891;-76
2022/10/15 10:48:28;;;;;;;0.40;0.20;;;20.00;73.90;;;;;;5045337;28;20480;-75
2022/10/15 10:51:10;;;;;;;0.40;0.20;;;20.20;60.30;;;;;;5038924;28;20452;-75
2022/10/15 10:53:47;;;;;;;0.50;0.20;;;20.20;49.80;;;;;;5035225;28;21484;-75
2022/10/15 10:56:14;;;;;;;0.30;0.13;;;20.20;20.90;;;;;;5037796;28;20558;-75
2022/10/15 10:58:42;;;;;;;0.30;0.10;;;19.90;54.80;;;;;;5034369;28;20904;-75
2022/10/15 11:01:12;;;;;;;0.30;0.20;;;19.70;52.80;;;;;;5037860;28;20454;-75
2022/10/15 11:03:42;;;;;;;0.30;0.10;;;19.50;35.60;;;;;;5032535;28;20456;-75
2022/10/15 11:06:35;;;;;;;0.30;0.20;;;19.30;67.40;;;;;;5034435;28;20482;-76
2022/10/15 11:09:14;;;;;;;0.30;0.10;;;19.10;84.40;;;;;;5026356;28;21022;-75
2022/10/15 11:11:54;;;;;;;0.30;0.10;;;19.00;94.10;;;;;;5033137;28;20452;-76
2022/10/15 11:14:30;;;;;;;0.40;0.20;;;19.20;73.90;;;;;;5032497;28;20491;-75
2022/10/15 11:17:05;;;;;;;0.30;0.10;;;19.20;65.00;;;;;;5035566;28;21033;-76
2022/10/15 11:19:41;;;;;;;0.50;0.20;;;19.20;38.00;;;;;;5034920;28;20509;-76
2022/10/15 11:22:35;;;;;;;0.30;0.20;;;19.20;77.50;;;;;;5033449;28;20464;-72
2022/10/15 11:25:16;;;;;;;0.40;0.20;;;19.10;63.90;;;;;;5033091;28;20511;-75
2022/10/15 11:27:55;;;;;;;0.40;0.20;;;19.10;73.00;;;;;;5036155;28;20480;-74
2022/10/15 11:30:34;;;;;;;0.40;0.30;;;19.10;64.10;;;;;;5034636;28;20461;-75
2022/10/15 11:33:13;;;;;;;0.30;0.20;;;19.10;35.30;;;;;;5034255;28;20464;-74
2022/10/15 11:35:48;;;;;;;0.50;0.30;;;19.10;38.10;;;;;;5034508;28;20818;-75
2022/10/15 11:38:28;;;;;;;0.87;0.20;;;19.10;22.70;;;;;;5034143;28;20460;-74
2022/10/15 11:41:19;;;;;;;0.50;0.20;;;19.30;43.30;;;;;;5029890;28;20456;-73
2022/10/15 11:44:01;;;;;;;1.23;0.20;;;19.40;47.30;;;;;;5034208;28;20518;-74
2022/10/15 11:46:36;;;;;;;0.40;0.20;;;19.50;21.90;;;;;;5031179;28;20514;-77
2022/10/15 11:49:18;;;;;;;0.83;0.20;;;19.40;1.00;;;;;;5035935;28;20872;-73
2022/10/15 11:52:12;;;;;;;0.53;0.20;;;19.40;25.00;;;;;;5031008;28;20463;-74
2022/10/15 11:54:45;;;;;;;0.70;0.20;;;19.50;17.50;;;;;;5033924;28;20823;-75
2022/10/15 11:57:16;;;;;;;0.97;0.20;;;19.60;9.50;;;;;;5030278;28;20460;-74
2022/10/15 11:59:48;;;;;;;0.50;0.20;;;19.60;1.00;;;;;;5034632;28;20456;-74
2022/10/15 12:02:19;;;;;;;0.50;0.20;;;19.60;1.00;;;;;;5031963;28;20502;-75
2022/10/15 12:04:50;;;;;;;0.40;0.20;;;19.50;1.00;;;;;;5034069;28;20456;-75
2022/10/15 12:07:22;;;;;;;0.87;0.30;;;19.70;1.00;;;;;;5030788;28;20527;-75
2022/10/15 12:09:53;;;;;;;0.40;0.10;;;19.90;1.00;;;;;;5035237;28;20498;-74
2022/10/15 12:12:30;;;;;;;0.30;0.10;;;20.10;1.00;;;;;;5036268;28;20488;-75
2022/10/15 12:15:21;;;;;;;0.40;0.10;;;20.20;1.00;;;;;;5035867;28;20480;-75
2022/10/15 12:17:55;;;;;;;0.30;0.20;;;20.00;1.00;;;;;;5034929;28;20547;-75
2022/10/15 12:20:26;;;;;;;0.30;0.10;;;20.00;1.00;;;;;;5032109;28;20501;-75
2022/10/15 12:22:59;;;;;;;4.73;3.07;;;20.00;1.00;;;;;;5038822;28;20448;-75
2022/10/15 12:25:46;;;;;;;0.40;0.20;;;20.00;1.00;;;;;;5042842;28;20449;-75
2022/10/15 12:28:17;;;;;;;4.57;0.20;;;19.80;1.00;;;;;;5035766;28;20861;-75
2022/10/15 12:30:58;;;;;;;0.30;0.20;;;19.80;1.00;;;;;;5038194;28;20452;-75
2022/10/15 12:33:32;;;;;;;0.30;0.10;;;19.80;1.00;;;;;;5033016;28;20457;-75
2022/10/15 12:36:01;;;;;;;0.67;0.10;;;19.80;1.00;;;;;;5041835;28;20487;-77
2022/10/15 12:38:31;;;;;;;0.50;0.20;;;19.60;1.00;;;;;;5040803;28;20551;-76
2022/10/15 12:41:05;;;;;;;0.40;0.10;;;19.50;1.00;;;;;;5040285;28;20760;-76
2022/10/15 12:43:41;;;;;;;0.30;0.10;;;19.50;1.00;;;;;;5038188;28;20479;-76
2022/10/15 12:46:10;;;;;;;0.30;0.10;;;19.40;1.00;;;;;;5043159;28;20446;-75
2022/10/15 12:48:40;;;;;;;0.30;0.20;;;19.30;1.00;;;;;;5021961;28;20476;-75
2022/10/15 12:51:30;;;;;;;0.50;0.17;;;19.30;1.00;;;;;;5036134;28;20816;-76
2022/10/15 12:54:01;;;;;;;0.30;0.20;;;19.30;1.60;;;;;;5030364;28;20575;-76
2022/10/15 12:56:38;;;;;;;0.30;0.20;;;19.30;1.00;;;;;;5034488;28;20502;-75
2022/10/15 12:59:30;;;;;;;0.30;0.10;;;19.10;1.00;;;;;;5030634;28;20506;-74
2022/10/15 13:01:57;;;;;;;0.30;0.20;;;19.00;30.30;;;;;;5034286;28;20443;-73
2022/10/15 13:04:37;;;;;;;0.30;0.10;;;18.90;39.90;;;;;;5029035;28;20463;-74
2022/10/15 13:07:05;;;;;;;0.40;0.20;;;18.70;30.00;;;;;;5034638;28;20472;-74
2022/10/15 13:09:33;;;;;;;0.60;0.17;;;18.70;48.10;;;;;;5030253;28;20448;-74
2022/10/15 13:12:01;;;;;;;0.40;0.20;;;18.60;57.90;;;;;;5034446;28;20460;-74